Arcadia, Florida
Current Conditions -  °F | °C
As of 9:53 PM on Friday 24 Oct 2014 (Local Time) from KPGD Reporting Station
Clear Clear  
Wind Chill: 67°   Ceiling: Unl
Heat Index: 67°   Visibility: 10mi
Dew Point: 60°   Wind: 7mph
Humidity: 79%   Direction: 40°NE
Pressure: 29.94"   Gusts: NA
Location:  27.22°N, 81.86°W
Report Text: KPGD 250153Z AUTO 04006KT 10SM CLR 19/16 A2994 RMK AO2 SLP140 T01940156
Loading
Personal Weather Stations






























Interactive Weather Map New forecast layout! Learn more

10-Day Weather Forecast

Advertisements
Track Severe Weather on mobile